createdAt,value
2018-06-02T00:03:35.004Z,95933
2018-06-02T00:09:03.934Z,95936
2018-06-02T00:14:32.115Z,95933
2018-06-02T00:20:01.021Z,95935
2018-06-02T00:25:29.164Z,95933
2018-06-02T00:30:58.248Z,95934
2018-06-02T00:36:26.399Z,95955
2018-06-02T00:41:54.562Z,95940
2018-06-02T00:47:23.464Z,95943
2018-06-02T00:52:51.598Z,95947
2018-06-02T00:58:19.747Z,95944
2018-06-02T01:03:48.109Z,95946
2018-06-02T01:09:16.283Z,95948
2018-06-02T01:14:44.467Z,95946
2018-06-02T01:20:12.634Z,95950
2018-06-02T01:25:40.775Z,95943
2018-06-02T01:31:09.022Z,95945
2018-06-02T01:36:37.164Z,95944
2018-06-02T01:42:06.091Z,95945
2018-06-02T01:47:34.236Z,95935
2018-06-02T01:53:03.141Z,95934
2018-06-02T01:58:31.293Z,95936
2018-06-02T02:04:00.216Z,95940
2018-06-02T02:09:29.108Z,95938
2018-06-02T02:14:57.265Z,95927
2018-06-02T02:20:25.397Z,95927
2018-06-02T02:25:54.317Z,95942
2018-06-02T02:31:22.471Z,95937
2018-06-02T02:36:50.613Z,95937
2018-06-02T02:42:18.735Z,95941
2018-06-02T02:47:46.879Z,95946
2018-06-02T02:53:15.045Z,95944
2018-06-02T02:58:43.204Z,95944
2018-06-02T03:04:11.382Z,95952
2018-06-02T03:09:39.544Z,95960
2018-06-02T03:15:07.748Z,95949
2018-06-02T03:20:35.875Z,95955
2018-06-02T03:26:04.021Z,95960
2018-06-02T03:31:32.182Z,95965
2018-06-02T03:37:01.301Z,95958
2018-06-02T03:42:30.200Z,95964
2018-06-02T03:47:58.328Z,95965
2018-06-02T03:53:26.477Z,95971
2018-06-02T03:58:55.383Z,95980
2018-06-02T04:04:23.511Z,95973
2018-06-02T04:09:51.645Z,95974
2018-06-02T04:15:19.790Z,95975
2018-06-02T04:20:47.919Z,95984
2018-06-02T04:26:16.180Z,95987
2018-06-02T04:31:44.352Z,95981
2018-06-02T04:37:14.398Z,95988
2018-06-02T04:42:42.583Z,95986
2018-06-02T04:48:10.744Z,95983
2018-06-02T04:53:38.948Z,95989
2018-06-02T04:59:08.858Z,96004
2018-06-02T05:04:37.003Z,96009
2018-06-02T05:10:05.158Z,96011
2018-06-02T05:15:34.097Z,96011
2018-06-02T05:21:03.007Z,96006
2018-06-02T05:26:31.154Z,95991
2018-06-02T05:32:00.064Z,95993
2018-06-02T05:37:28.214Z,96013
2018-06-02T05:42:57.114Z,96015
2018-06-02T05:48:25.244Z,96007
2018-06-02T05:53:53.431Z,96008
2018-06-02T05:59:21.571Z,96017
2018-06-02T06:04:49.786Z,96004
2018-06-02T06:10:17.960Z,96007
2018-06-02T06:15:46.165Z,96000
2018-06-02T06:21:15.097Z,95994
2018-06-02T06:26:43.279Z,95998
2018-06-02T06:32:11.496Z,96005
2018-06-02T06:37:39.688Z,95997
2018-06-02T06:43:08.850Z,95998
2018-06-02T06:48:37.027Z,95990
2018-06-02T06:54:05.962Z,95990
2018-06-02T06:59:34.859Z,95994
2018-06-02T07:05:03.022Z,95998
2018-06-02T07:10:31.924Z,96002
2018-06-02T07:16:00.238Z,95998
2018-06-02T07:21:28.373Z,95996
2018-06-02T07:27:09.453Z,96001
2018-06-02T07:32:37.590Z,95999
2018-06-02T07:38:05.763Z,95999
2018-06-02T07:43:34.686Z,95996
2018-06-02T07:49:02.817Z,95998
2018-06-02T07:54:31.741Z,96005
2018-06-02T07:59:59.925Z,95999
2018-06-02T08:05:28.109Z,96000
2018-06-02T08:10:57.081Z,96003
2018-06-02T08:16:25.236Z,95989
2018-06-02T08:21:53.391Z,95995
2018-06-02T08:27:21.535Z,95996
2018-06-02T08:32:49.680Z,95997
2018-06-02T08:38:17.825Z,96001
2018-06-02T08:43:45.970Z,95998
2018-06-02T08:49:14.134Z,96000
2018-06-02T08:54:42.328Z,96005
2018-06-02T09:00:10.564Z,96010
2018-06-02T09:05:38.749Z,96002
2018-06-02T09:11:06.926Z,95997
2018-06-02T09:16:35.160Z,95995
2018-06-02T09:22:03.285Z,95997
2018-06-02T09:27:31.416Z,95981
2018-06-02T09:33:00.411Z,95985
2018-06-02T09:38:28.568Z,95981
2018-06-02T09:43:57.482Z,95994
2018-06-02T09:49:25.624Z,95994
2018-06-02T09:54:54.536Z,95982
2018-06-02T10:00:25.184Z,95985
2018-06-02T10:05:53.325Z,95983
2018-06-02T10:11:21.489Z,95982
2018-06-02T10:16:50.433Z,95979
2018-06-02T10:22:19.354Z,95965
2018-06-02T10:27:49.209Z,95961
2018-06-02T10:33:18.128Z,95982
2018-06-02T10:38:46.302Z,95972
2018-06-02T10:44:14.584Z,95966
2018-06-02T10:49:42.760Z,95974
2018-06-02T10:55:11.015Z,95963
2018-06-02T11:00:39.300Z,95963
2018-06-02T11:06:07.502Z,95971
2018-06-02T11:11:35.666Z,95971
2018-06-02T11:17:04.152Z,95960
2018-06-02T11:22:32.289Z,95936
2018-06-02T11:28:00.447Z,95941
2018-06-02T11:33:28.609Z,95938
2018-06-02T11:38:56.963Z,95930
2018-06-02T11:44:25.125Z,95938
2018-06-02T11:49:53.269Z,95925
2018-06-02T11:55:21.396Z,95915
2018-06-02T12:00:49.643Z,95910
2018-06-02T12:06:17.810Z,95902
2018-06-02T12:11:46.845Z,95888
2018-06-02T12:17:29.721Z,95882
2018-06-02T12:22:58.387Z,95879
2018-06-02T12:28:26.950Z,95884
2018-06-02T12:33:55.338Z,95876
2018-06-02T12:39:23.732Z,95879
2018-06-02T12:44:52.841Z,95867
2018-06-02T12:50:21.233Z,95882
2018-06-02T12:55:49.569Z,95880
2018-06-02T13:01:17.972Z,95855
2018-06-02T13:06:46.848Z,95863
2018-06-02T13:12:16.085Z,95859
2018-06-02T13:17:44.645Z,95851
2018-06-02T13:23:13.704Z,95848
2018-06-02T13:28:42.847Z,95845
2018-06-02T13:34:12.046Z,95831
2018-06-02T13:39:40.353Z,95844
2018-06-02T13:45:08.678Z,95832
2018-06-02T13:50:37.030Z,95822
2018-06-02T13:56:05.438Z,95828
2018-06-02T14:01:37.521Z,95830
2018-06-02T14:07:06.861Z,95822
2018-06-02T14:12:35.486Z,95826
2018-06-02T14:18:04.561Z,95832
2018-06-02T14:23:32.755Z,95821
2018-06-02T14:29:00.885Z,95822
2018-06-02T14:34:29.039Z,95816
2018-06-02T14:39:57.184Z,95803
2018-06-02T14:45:26.084Z,95815
2018-06-02T14:50:54.254Z,95794
2018-06-02T14:56:23.198Z,95794
2018-06-02T15:01:51.378Z,95797
2018-06-02T15:07:19.532Z,95796
2018-06-02T15:12:47.665Z,95792
2018-06-02T15:18:15.803Z,95791
2018-06-02T15:23:44.019Z,95780
2018-06-02T15:29:12.210Z,95774
2018-06-02T15:34:40.394Z,95760
2018-06-02T15:40:08.550Z,95763
2018-06-02T15:45:36.706Z,95766
2018-06-02T15:51:04.872Z,95767
2018-06-02T15:56:33.787Z,95777
2018-06-02T16:02:01.976Z,95781
2018-06-02T16:07:30.093Z,95782
2018-06-02T16:12:59.190Z,95777
2018-06-02T16:18:28.124Z,95784
2018-06-02T16:23:56.267Z,95793
2018-06-02T16:29:24.424Z,95779
2018-06-02T16:34:52.813Z,95773
2018-06-02T16:40:20.981Z,95775
2018-06-02T16:45:49.185Z,95769
2018-06-02T16:51:17.351Z,95765
2018-06-02T16:56:45.496Z,95764
2018-06-02T17:02:13.647Z,95773
2018-06-02T17:07:42.759Z,95777
2018-06-02T17:13:10.933Z,95776
2018-06-02T17:18:45.186Z,95784
2018-06-02T17:24:13.345Z,95786
2018-06-02T17:29:41.504Z,95784
2018-06-02T17:35:09.679Z,95791
2018-06-02T17:40:37.918Z,95784
2018-06-02T17:46:06.070Z,95795
2018-06-02T17:51:34.291Z,95790
2018-06-02T17:57:02.756Z,95793
2018-06-02T18:02:30.894Z,95792
2018-06-02T18:08:01.136Z,95796
2018-06-02T18:13:29.283Z,95807
2018-06-02T18:18:58.241Z,95802
2018-06-02T18:24:27.834Z,95803
2018-06-02T18:29:56.025Z,95799
2018-06-02T18:35:24.283Z,95802
2018-06-02T18:40:52.445Z,95806
2018-06-02T18:46:21.385Z,95818
2018-06-02T18:51:50.325Z,95823
2018-06-02T18:57:19.252Z,95829
2018-06-02T19:02:48.240Z,95826
2018-06-02T19:08:16.620Z,95827
2018-06-02T19:13:45.580Z,95835
2018-06-02T19:19:13.752Z,95846
2018-06-02T19:24:42.133Z,95849
2018-06-02T19:30:10.428Z,95861
2018-06-02T19:35:39.923Z,95863
2018-06-02T19:41:08.232Z,95869
2018-06-02T19:46:36.429Z,95877
2018-06-02T19:52:04.606Z,95876
2018-06-02T19:57:33.785Z,95873
2018-06-02T20:03:02.713Z,95874
2018-06-02T20:08:31.639Z,95884
2018-06-02T20:13:59.796Z,95893
2018-06-02T20:19:27.934Z,95886
2018-06-02T20:24:56.072Z,95886
2018-06-02T20:30:24.225Z,95896
2018-06-02T20:35:53.176Z,95896
2018-06-02T20:41:21.328Z,95897
2018-06-02T20:46:49.475Z,95894
2018-06-02T20:52:17.743Z,95891
2018-06-02T20:57:45.911Z,95896
2018-06-02T21:03:14.121Z,95897
2018-06-02T21:08:43.382Z,95910
2018-06-02T21:14:11.680Z,95906
2018-06-02T21:19:39.877Z,95915
2018-06-02T21:25:08.057Z,95917
2018-06-02T21:30:38.058Z,95921
2018-06-02T21:36:06.225Z,95919
2018-06-02T21:41:34.394Z,95916
2018-06-02T21:47:02.520Z,95927
2018-06-02T21:52:30.738Z,95916
2018-06-02T21:57:58.899Z,95929
2018-06-02T22:03:27.088Z,95932
2018-06-02T22:08:55.417Z,95924
2018-06-02T22:14:23.638Z,95933
2018-06-02T22:19:51.806Z,95936
2018-06-02T22:25:19.936Z,95928
2018-06-02T22:30:48.089Z,95924
2018-06-02T22:36:17.227Z,95927
2018-06-02T22:41:45.398Z,95919
2018-06-02T22:47:13.565Z,95920
2018-06-02T22:52:41.778Z,95910
2018-06-02T22:58:10.695Z,95910
2018-06-02T23:03:39.743Z,95916
2018-06-02T23:09:09.309Z,95915
2018-06-02T23:14:37.508Z,95921
2018-06-02T23:20:06.418Z,95924
2018-06-02T23:25:34.567Z,95921
2018-06-02T23:31:03.468Z,95906
2018-06-02T23:36:31.625Z,95908
2018-06-02T23:42:00.524Z,95904
2018-06-02T23:47:28.667Z,95911
2018-06-02T23:52:56.815Z,95898
2018-06-02T23:58:24.971Z,95906
